sensor_id;sensor_type;location;lat;lon;timestamp;temperature;humidity
27797;DHT22;15177;50.844;4.412;2022-12-11T00:01:37;3.50;99.90
27797;DHT22;15177;50.844;4.412;2022-12-11T00:04:03;3.60;99.90
27797;DHT22;15177;50.844;4.412;2022-12-11T00:06:29;3.50;99.90
27797;DHT22;15177;50.844;4.412;2022-12-11T00:08:56;3.50;99.90
27797;DHT22;15177;50.844;4.412;2022-12-11T00:11:22;3.60;99.90
27797;DHT22;15177;50.844;4.412;2022-12-11T00:13:48;3.70;99.90
27797;DHT22;15177;50.844;4.412;2022-12-11T00:16:14;3.70;99.90
27797;DHT22;15177;50.844;4.412;2022-12-11T00:18:40;3.80;99.90
27797;DHT22;15177;50.844;4.412;2022-12-11T00:21:08;3.70;99.90
27797;DHT22;15177;50.844;4.412;2022-12-11T00:23:35;3.70;99.90
27797;DHT22;15177;50.844;4.412;2022-12-11T00:26:04;3.70;99.90
27797;DHT22;15177;50.844;4.412;2022-12-11T00:28:31;3.70;99.90
27797;DHT22;15177;50.844;4.412;2022-12-11T00:30:57;3.60;99.90
27797;DHT22;15177;50.844;4.412;2022-12-11T00:33:22;3.60;99.90
27797;DHT22;15177;50.844;4.412;2022-12-11T00:35:50;3.60;99.90
27797;DHT22;15177;50.844;4.412;2022-12-11T00:38:20;3.60;99.90
27797;DHT22;15177;50.844;4.412;2022-12-11T00:40:46;3.60;99.90
27797;DHT22;15177;50.844;4.412;2022-12-11T00:43:12;3.60;99.90
27797;DHT22;15177;50.844;4.412;2022-12-11T00:45:43;3.70;99.90
27797;DHT22;15177;50.844;4.412;2022-12-11T00:48:10;3.70;99.90
27797;DHT22;15177;50.844;4.412;2022-12-11T00:50:37;3.60;99.90
27797;DHT22;15177;50.844;4.412;2022-12-11T00:53:04;3.60;99.90
27797;DHT22;15177;50.844;4.412;2022-12-11T00:55:30;3.60;99.90
27797;DHT22;15177;50.844;4.412;2022-12-11T00:57:56;3.60;99.90
27797;DHT22;15177;50.844;4.412;2022-12-11T01:00:26;3.70;99.90
27797;DHT22;15177;50.844;4.412;2022-12-11T01:02:52;3.70;99.90
27797;DHT22;15177;50.844;4.412;2022-12-11T01:05:18;3.70;99.90
27797;DHT22;15177;50.844;4.412;2022-12-11T01:07:43;3.70;99.90
27797;DHT22;15177;50.844;4.412;2022-12-11T01:10:11;3.70;99.90
27797;DHT22;15177;50.844;4.412;2022-12-11T01:12:56;3.60;99.90
27797;DHT22;15177;50.844;4.412;2022-12-11T01:15:24;3.70;99.90
27797;DHT22;15177;50.844;4.412;2022-12-11T01:17:50;3.70;99.90
27797;DHT22;15177;50.844;4.412;2022-12-11T01:20:18;3.80;99.90
27797;DHT22;15177;50.844;4.412;2022-12-11T01:22:44;3.80;99.90
27797;DHT22;15177;50.844;4.412;2022-12-11T01:25:10;3.90;99.90
27797;DHT22;15177;50.844;4.412;2022-12-11T01:27:36;3.80;99.90
27797;DHT22;15177;50.844;4.412;2022-12-11T01:30:06;3.80;99.90
27797;DHT22;15177;50.844;4.412;2022-12-11T01:32:33;3.80;99.90
27797;DHT22;15177;50.844;4.412;2022-12-11T01:35:01;3.70;99.90
27797;DHT22;15177;50.844;4.412;2022-12-11T01:37:27;3.70;99.90
27797;DHT22;15177;50.844;4.412;2022-12-11T01:39:53;3.70;99.90
27797;DHT22;15177;50.844;4.412;2022-12-11T01:42:19;3.70;99.90
27797;DHT22;15177;50.844;4.412;2022-12-11T01:47:11;3.80;99.90
27797;DHT22;15177;50.844;4.412;2022-12-11T01:49:38;3.80;99.90
27797;DHT22;15177;50.844;4.412;2022-12-11T01:52:08;3.90;99.90
27797;DHT22;15177;50.844;4.412;2022-12-11T01:54:35;3.90;99.90
27797;DHT22;15177;50.844;4.412;2022-12-11T01:57:04;3.90;99.90
27797;DHT22;15177;50.844;4.412;2022-12-11T01:59:32;3.90;99.90
27797;DHT22;15177;50.844;4.412;2022-12-11T02:02:25;4.00;99.90
27797;DHT22;15177;50.844;4.412;2022-12-11T02:04:52;3.80;99.90
27797;DHT22;15177;50.844;4.412;2022-12-11T02:07:18;3.80;99.90
27797;DHT22;15177;50.844;4.412;2022-12-11T02:09:45;3.80;99.90
27797;DHT22;15177;50.844;4.412;2022-12-11T02:17:33;3.60;99.90
27797;DHT22;15177;50.844;4.412;2022-12-11T02:20:27;3.60;99.90
27797;DHT22;15177;50.844;4.412;2022-12-11T02:28:24;3.60;99.90
27797;DHT22;15177;50.844;4.412;2022-12-11T02:31:04;3.70;99.90
27797;DHT22;15177;50.844;4.412;2022-12-11T02:36:24;3.70;99.90
27797;DHT22;15177;50.844;4.412;2022-12-11T02:38:52;3.80;99.90
27797;DHT22;15177;50.844;4.412;2022-12-11T02:41:22;3.80;99.90
27797;DHT22;15177;50.844;4.412;2022-12-11T02:43:49;3.80;99.90
27797;DHT22;15177;50.844;4.412;2022-12-11T02:46:16;3.80;99.90
27797;DHT22;15177;50.844;4.412;2022-12-11T02:48:45;3.70;99.90
27797;DHT22;15177;50.844;4.412;2022-12-11T02:51:15;3.50;99.90
27797;DHT22;15177;50.844;4.412;2022-12-11T02:53:44;3.60;99.90
27797;DHT22;15177;50.844;4.412;2022-12-11T02:56:30;3.80;99.90
27797;DHT22;15177;50.844;4.412;2022-12-11T02:59:00;3.90;99.90
27797;DHT22;15177;50.844;4.412;2022-12-11T03:01:27;3.90;99.90
27797;DHT22;15177;50.844;4.412;2022-12-11T03:03:54;3.90;99.90
27797;DHT22;15177;50.844;4.412;2022-12-11T03:06:25;3.90;99.90
27797;DHT22;15177;50.844;4.412;2022-12-11T03:08:52;4.00;99.90
27797;DHT22;15177;50.844;4.412;2022-12-11T03:11:17;3.90;99.90
27797;DHT22;15177;50.844;4.412;2022-12-11T03:13:43;3.90;99.90
27797;DHT22;15177;50.844;4.412;2022-12-11T03:16:15;3.40;99.90
27797;DHT22;15177;50.844;4.412;2022-12-11T03:26:27;3.50;99.90
27797;DHT22;15177;50.844;4.412;2022-12-11T03:28:58;3.50;99.90
27797;DHT22;15177;50.844;4.412;2022-12-11T03:31:35;3.70;99.90
27797;DHT22;15177;50.844;4.412;2022-12-11T03:34:12;3.40;99.90
27797;DHT22;15177;50.844;4.412;2022-12-11T03:36:41;3.60;99.90
27797;DHT22;15177;50.844;4.412;2022-12-11T03:39:22;3.50;99.90
27797;DHT22;15177;50.844;4.412;2022-12-11T03:41:51;3.50;99.90
27797;DHT22;15177;50.844;4.412;2022-12-11T03:44:19;3.60;99.90
27797;DHT22;15177;50.844;4.412;2022-12-11T03:46:46;3.60;99.90
27797;DHT22;15177;50.844;4.412;2022-12-11T03:49:21;3.50;99.90
27797;DHT22;15177;50.844;4.412;2022-12-11T03:51:49;3.50;99.90
27797;DHT22;15177;50.844;4.412;2022-12-11T03:54:16;3.60;99.90
27797;DHT22;15177;50.844;4.412;2022-12-11T03:56:44;3.60;99.90
27797;DHT22;15177;50.844;4.412;2022-12-11T03:59:11;3.70;99.90
27797;DHT22;15177;50.844;4.412;2022-12-11T04:01:37;3.50;99.90
27797;DHT22;15177;50.844;4.412;2022-12-11T04:04:02;3.50;99.90
27797;DHT22;15177;50.844;4.412;2022-12-11T04:06:28;3.70;99.90
27797;DHT22;15177;50.844;4.412;2022-12-11T04:08:54;3.70;99.90
27797;DHT22;15177;50.844;4.412;2022-12-11T04:11:19;3.80;99.90
27797;DHT22;15177;50.844;4.412;2022-12-11T04:16:45;4.00;99.90
27797;DHT22;15177;50.844;4.412;2022-12-11T04:19:11;3.90;99.90
27797;DHT22;15177;50.844;4.412;2022-12-11T04:21:55;3.80;99.90
27797;DHT22;15177;50.844;4.412;2022-12-11T04:24:40;3.70;99.90
27797;DHT22;15177;50.844;4.412;2022-12-11T04:27:05;3.70;99.90
27797;DHT22;15177;50.844;4.412;2022-12-11T04:29:31;3.70;99.90
27797;DHT22;15177;50.844;4.412;2022-12-11T04:31:57;3.50;99.90
27797;DHT22;15177;50.844;4.412;2022-12-11T04:34:23;3.20;99.90
27797;DHT22;15177;50.844;4.412;2022-12-11T04:36:49;3.30;99.90
27797;DHT22;15177;50.844;4.412;2022-12-11T04:39:16;3.40;99.90
27797;DHT22;15177;50.844;4.412;2022-12-11T04:41:42;3.50;99.90
27797;DHT22;15177;50.844;4.412;2022-12-11T04:44:07;3.40;99.90
27797;DHT22;15177;50.844;4.412;2022-12-11T04:46:33;3.60;99.90
27797;DHT22;15177;50.844;4.412;2022-12-11T04:48:59;3.50;99.90
27797;DHT22;15177;50.844;4.412;2022-12-11T04:51:26;3.50;99.90
27797;DHT22;15177;50.844;4.412;2022-12-11T04:53:53;3.60;99.90
27797;DHT22;15177;50.844;4.412;2022-12-11T04:56:19;3.70;99.90
27797;DHT22;15177;50.844;4.412;2022-12-11T04:58:45;3.70;99.90
27797;DHT22;15177;50.844;4.412;2022-12-11T05:01:16;3.50;99.90
27797;DHT22;15177;50.844;4.412;2022-12-11T05:03:43;3.20;99.90
27797;DHT22;15177;50.844;4.412;2022-12-11T05:06:10;3.40;99.90
27797;DHT22;15177;50.844;4.412;2022-12-11T05:08:37;3.40;99.90
27797;DHT22;15177;50.844;4.412;2022-12-11T05:11:07;3.50;99.90
27797;DHT22;15177;50.844;4.412;2022-12-11T05:13:33;3.60;99.90
27797;DHT22;15177;50.844;4.412;2022-12-11T05:15:59;3.70;99.90
27797;DHT22;15177;50.844;4.412;2022-12-11T05:18:27;3.70;99.90
27797;DHT22;15177;50.844;4.412;2022-12-11T05:20:58;3.70;99.90
27797;DHT22;15177;50.844;4.412;2022-12-11T05:23:25;3.40;99.90
27797;DHT22;15177;50.844;4.412;2022-12-11T05:25:55;3.40;99.90
27797;DHT22;15177;50.844;4.412;2022-12-11T05:28:22;3.60;99.90
27797;DHT22;15177;50.844;4.412;2022-12-11T05:30:57;3.70;99.90
27797;DHT22;15177;50.844;4.412;2022-12-11T05:33:24;3.80;99.90
27797;DHT22;15177;50.844;4.412;2022-12-11T05:35:50;3.80;99.90
27797;DHT22;15177;50.844;4.412;2022-12-11T05:38:16;3.70;99.90
27797;DHT22;15177;50.844;4.412;2022-12-11T05:40:42;3.80;99.90
27797;DHT22;15177;50.844;4.412;2022-12-11T05:43:07;3.80;99.90
27797;DHT22;15177;50.844;4.412;2022-12-11T05:45:33;3.70;99.90
27797;DHT22;15177;50.844;4.412;2022-12-11T05:47:59;3.70;99.90
27797;DHT22;15177;50.844;4.412;2022-12-11T05:50:25;3.70;99.90
27797;DHT22;15177;50.844;4.412;2022-12-11T05:52:50;3.30;99.90
27797;DHT22;15177;50.844;4.412;2022-12-11T05:55:16;3.40;99.90
27797;DHT22;15177;50.844;4.412;2022-12-11T05:57:41;3.60;99.90
27797;DHT22;15177;50.844;4.412;2022-12-11T06:00:08;3.60;99.90
27797;DHT22;15177;50.844;4.412;2022-12-11T06:02:34;3.50;99.90
27797;DHT22;15177;50.844;4.412;2022-12-11T06:05:00;3.60;99.90
27797;DHT22;15177;50.844;4.412;2022-12-11T06:07:26;3.70;99.90
27797;DHT22;15177;50.844;4.412;2022-12-11T06:09:52;3.80;99.90
27797;DHT22;15177;50.844;4.412;2022-12-11T06:12:17;3.70;99.90
27797;DHT22;15177;50.844;4.412;2022-12-11T06:14:43;3.60;99.90
27797;DHT22;15177;50.844;4.412;2022-12-11T06:17:09;3.40;99.90
27797;DHT22;15177;50.844;4.412;2022-12-11T06:19:34;3.50;99.90
27797;DHT22;15177;50.844;4.412;2022-12-11T06:22:01;3.60;99.90
27797;DHT22;15177;50.844;4.412;2022-12-11T06:24:27;3.60;99.90
27797;DHT22;15177;50.844;4.412;2022-12-11T06:26:53;3.30;99.90
27797;DHT22;15177;50.844;4.412;2022-12-11T06:29:18;3.30;99.90
27797;DHT22;15177;50.844;4.412;2022-12-11T06:31:44;3.30;99.90
27797;DHT22;15177;50.844;4.412;2022-12-11T06:34:11;3.30;99.90
27797;DHT22;15177;50.844;4.412;2022-12-11T06:36:38;3.00;99.90
27797;DHT22;15177;50.844;4.412;2022-12-11T06:39:04;3.10;99.90
27797;DHT22;15177;50.844;4.412;2022-12-11T06:41:29;3.00;99.90
27797;DHT22;15177;50.844;4.412;2022-12-11T06:43:55;3.10;99.90
27797;DHT22;15177;50.844;4.412;2022-12-11T06:46:22;3.20;99.90
27797;DHT22;15177;50.844;4.412;2022-12-11T06:48:48;3.30;99.90
27797;DHT22;15177;50.844;4.412;2022-12-11T06:51:16;3.10;99.90
27797;DHT22;15177;50.844;4.412;2022-12-11T06:53:43;3.10;99.90
27797;DHT22;15177;50.844;4.412;2022-12-11T06:56:11;3.20;99.90
27797;DHT22;15177;50.844;4.412;2022-12-11T06:58:37;3.20;99.90
27797;DHT22;15177;50.844;4.412;2022-12-11T07:01:11;3.20;99.90
27797;DHT22;15177;50.844;4.412;2022-12-11T07:03:37;3.20;99.90
27797;DHT22;15177;50.844;4.412;2022-12-11T07:06:04;3.20;99.90
27797;DHT22;15177;50.844;4.412;2022-12-11T07:08:29;3.30;99.90
27797;DHT22;15177;50.844;4.412;2022-12-11T07:11:02;3.30;99.90
27797;DHT22;15177;50.844;4.412;2022-12-11T07:13:28;3.20;99.90
27797;DHT22;15177;50.844;4.412;2022-12-11T07:15:54;3.30;99.90
27797;DHT22;15177;50.844;4.412;2022-12-11T07:18:19;3.30;99.90
27797;DHT22;15177;50.844;4.412;2022-12-11T07:20:45;3.40;99.90
27797;DHT22;15177;50.844;4.412;2022-12-11T07:23:11;3.40;99.90
27797;DHT22;15177;50.844;4.412;2022-12-11T07:25:36;3.50;99.90
27797;DHT22;15177;50.844;4.412;2022-12-11T07:28:03;3.50;99.90
27797;DHT22;15177;50.844;4.412;2022-12-11T07:30:29;3.40;99.90
27797;DHT22;15177;50.844;4.412;2022-12-11T07:32:54;3.00;99.90
27797;DHT22;15177;50.844;4.412;2022-12-11T07:35:20;3.10;99.90
27797;DHT22;15177;50.844;4.412;2022-12-11T07:37:46;3.20;99.90
27797;DHT22;15177;50.844;4.412;2022-12-11T07:40:12;3.30;99.90
27797;DHT22;15177;50.844;4.412;2022-12-11T07:42:38;3.30;99.90
27797;DHT22;15177;50.844;4.412;2022-12-11T07:45:04;3.30;99.90
27797;DHT22;15177;50.844;4.412;2022-12-11T07:47:29;3.30;99.90
27797;DHT22;15177;50.844;4.412;2022-12-11T07:49:55;3.40;99.90
27797;DHT22;15177;50.844;4.412;2022-12-11T07:52:21;3.40;99.90
27797;DHT22;15177;50.844;4.412;2022-12-11T07:54:46;3.40;99.90
27797;DHT22;15177;50.844;4.412;2022-12-11T07:57:12;3.40;99.90
27797;DHT22;15177;50.844;4.412;2022-12-11T07:59:38;3.40;99.90
27797;DHT22;15177;50.844;4.412;2022-12-11T08:02:03;3.50;99.90
27797;DHT22;15177;50.844;4.412;2022-12-11T08:04:29;3.50;99.90
27797;DHT22;15177;50.844;4.412;2022-12-11T08:06:56;3.60;99.90
27797;DHT22;15177;50.844;4.412;2022-12-11T08:09:22;3.60;99.90
27797;DHT22;15177;50.844;4.412;2022-12-11T08:11:51;3.60;99.90
27797;DHT22;15177;50.844;4.412;2022-12-11T08:14:18;3.60;99.90
27797;DHT22;15177;50.844;4.412;2022-12-11T08:16:44;3.70;99.90
27797;DHT22;15177;50.844;4.412;2022-12-11T08:19:11;3.70;99.90
27797;DHT22;15177;50.844;4.412;2022-12-11T08:21:37;3.70;99.90
27797;DHT22;15177;50.844;4.412;2022-12-11T08:24:04;3.60;99.90
27797;DHT22;15177;50.844;4.412;2022-12-11T08:26:30;3.60;99.90
27797;DHT22;15177;50.844;4.412;2022-12-11T08:28:56;3.70;99.90
27797;DHT22;15177;50.844;4.412;2022-12-11T08:31:23;3.60;99.90
27797;DHT22;15177;50.844;4.412;2022-12-11T08:33:49;3.70;99.90
27797;DHT22;15177;50.844;4.412;2022-12-11T08:36:17;3.70;99.90
27797;DHT22;15177;50.844;4.412;2022-12-11T08:38:46;3.70;99.90
27797;DHT22;15177;50.844;4.412;2022-12-11T08:41:20;3.50;99.90
27797;DHT22;15177;50.844;4.412;2022-12-11T08:43:47;3.60;99.90
27797;DHT22;15177;50.844;4.412;2022-12-11T08:46:14;3.60;99.90
27797;DHT22;15177;50.844;4.412;2022-12-11T08:48:41;3.70;99.90
27797;DHT22;15177;50.844;4.412;2022-12-11T08:51:10;3.60;99.90
27797;DHT22;15177;50.844;4.412;2022-12-11T08:53:36;3.50;99.90
27797;DHT22;15177;50.844;4.412;2022-12-11T08:56:08;3.50;99.90
27797;DHT22;15177;50.844;4.412;2022-12-11T08:58:34;3.50;99.90
27797;DHT22;15177;50.844;4.412;2022-12-11T09:01:09;3.50;99.90
27797;DHT22;15177;50.844;4.412;2022-12-11T09:03:36;3.60;99.90
27797;DHT22;15177;50.844;4.412;2022-12-11T09:06:06;3.60;99.90
27797;DHT22;15177;50.844;4.412;2022-12-11T09:08:33;3.60;99.90
27797;DHT22;15177;50.844;4.412;2022-12-11T09:11:20;3.40;99.90
27797;DHT22;15177;50.844;4.412;2022-12-11T09:13:46;3.50;99.90
27797;DHT22;15177;50.844;4.412;2022-12-11T09:16:15;3.50;99.90
27797;DHT22;15177;50.844;4.412;2022-12-11T09:18:43;3.40;99.90
27797;DHT22;15177;50.844;4.412;2022-12-11T09:21:11;3.30;99.90
27797;DHT22;15177;50.844;4.412;2022-12-11T09:23:40;3.10;99.90
27797;DHT22;15177;50.844;4.412;2022-12-11T09:26:07;3.20;99.90
27797;DHT22;15177;50.844;4.412;2022-12-11T09:28:35;3.40;99.90
27797;DHT22;15177;50.844;4.412;2022-12-11T09:31:10;3.40;99.90
27797;DHT22;15177;50.844;4.412;2022-12-11T09:33:37;3.50;99.90
27797;DHT22;15177;50.844;4.412;2022-12-11T09:36:04;3.50;99.90
27797;DHT22;15177;50.844;4.412;2022-12-11T09:38:30;3.50;99.90
27797;DHT22;15177;50.844;4.412;2022-12-11T09:40:56;3.60;99.90
27797;DHT22;15177;50.844;4.412;2022-12-11T09:45:54;3.80;99.90
27797;DHT22;15177;50.844;4.412;2022-12-11T09:48:22;3.70;99.90
27797;DHT22;15177;50.844;4.412;2022-12-11T09:50:52;3.60;99.90
27797;DHT22;15177;50.844;4.412;2022-12-11T09:53:26;3.40;99.90
27797;DHT22;15177;50.844;4.412;2022-12-11T10:01:16;3.70;99.90
27797;DHT22;15177;50.844;4.412;2022-12-11T10:09:18;3.10;99.90
27797;DHT22;15177;50.844;4.412;2022-12-11T10:15:10;3.60;99.90
27797;DHT22;15177;50.844;4.412;2022-12-11T10:17:26;3.50;99.90
27797;DHT22;15177;50.844;4.412;2022-12-11T10:19:55;3.20;99.90
27797;DHT22;15177;50.844;4.412;2022-12-11T10:22:25;3.50;99.90
27797;DHT22;15177;50.844;4.412;2022-12-11T10:25:06;3.50;99.90
27797;DHT22;15177;50.844;4.412;2022-12-11T10:27:38;3.80;99.90
27797;DHT22;15177;50.844;4.412;2022-12-11T10:30:27;3.80;99.90
27797;DHT22;15177;50.844;4.412;2022-12-11T10:35:51;4.00;99.90
27797;DHT22;15177;50.844;4.412;2022-12-11T10:38:30;4.00;99.90
27797;DHT22;15177;50.844;4.412;2022-12-11T10:41:00;4.20;99.90
27797;DHT22;15177;50.844;4.412;2022-12-11T10:43:38;4.20;99.90
27797;DHT22;15177;50.844;4.412;2022-12-11T10:46:06;4.30;99.90
27797;DHT22;15177;50.844;4.412;2022-12-11T10:48:54;4.20;99.90
27797;DHT22;15177;50.844;4.412;2022-12-11T10:51:23;4.20;99.90
27797;DHT22;15177;50.844;4.412;2022-12-11T10:53:52;4.20;99.90
27797;DHT22;15177;50.844;4.412;2022-12-11T10:56:28;4.30;99.90
27797;DHT22;15177;50.844;4.412;2022-12-11T10:58:57;4.30;99.90
27797;DHT22;15177;50.844;4.412;2022-12-11T11:01:28;4.30;99.90
27797;DHT22;15177;50.844;4.412;2022-12-11T11:04:05;4.30;99.90
27797;DHT22;15177;50.844;4.412;2022-12-11T11:06:31;4.30;99.90
27797;DHT22;15177;50.844;4.412;2022-12-11T11:09:00;4.50;99.90
27797;DHT22;15177;50.844;4.412;2022-12-11T11:11:36;4.50;99.90
27797;DHT22;15177;50.844;4.412;2022-12-11T11:14:19;4.60;99.90
27797;DHT22;15177;50.844;4.412;2022-12-11T11:16:47;4.40;99.90
27797;DHT22;15177;50.844;4.412;2022-12-11T11:19:39;4.30;99.90
27797;DHT22;15177;50.844;4.412;2022-12-11T11:22:07;4.30;99.90
27797;DHT22;15177;50.844;4.412;2022-12-11T11:24:38;4.30;99.90
27797;DHT22;15177;50.844;4.412;2022-12-11T11:27:29;4.40;99.90
27797;DHT22;15177;50.844;4.412;2022-12-11T11:30:02;4.20;99.90
27797;DHT22;15177;50.844;4.412;2022-12-11T11:32:38;4.20;99.90
27797;DHT22;15177;50.844;4.412;2022-12-11T11:37:38;4.30;99.90
27797;DHT22;15177;50.844;4.412;2022-12-11T11:40:15;4.50;99.90
27797;DHT22;15177;50.844;4.412;2022-12-11T11:42:46;4.60;99.90
27797;DHT22;15177;50.844;4.412;2022-12-11T11:45:24;4.60;99.90
27797;DHT22;15177;50.844;4.412;2022-12-11T11:50:29;4.50;99.90
27797;DHT22;15177;50.844;4.412;2022-12-11T11:53:04;4.30;99.90
27797;DHT22;15177;50.844;4.412;2022-12-11T11:55:48;4.00;99.90
27797;DHT22;15177;50.844;4.412;2022-12-11T11:58:23;3.90;99.90
27797;DHT22;15177;50.844;4.412;2022-12-11T12:00:55;4.20;99.90
27797;DHT22;15177;50.844;4.412;2022-12-11T12:03:22;4.40;99.90
27797;DHT22;15177;50.844;4.412;2022-12-11T12:06:03;4.60;99.90
27797;DHT22;15177;50.844;4.412;2022-12-11T12:09:04;4.30;99.90
27797;DHT22;15177;50.844;4.412;2022-12-11T12:11:49;4.50;99.90
27797;DHT22;15177;50.844;4.412;2022-12-11T12:22:03;5.00;99.90
27797;DHT22;15177;50.844;4.412;2022-12-11T12:27:25;5.10;99.90
27797;DHT22;15177;50.844;4.412;2022-12-11T12:30:29;4.80;99.90
27797;DHT22;15177;50.844;4.412;2022-12-11T12:33:28;4.60;99.90
27797;DHT22;15177;50.844;4.412;2022-12-11T12:39:10;4.50;99.90
27797;DHT22;15177;50.844;4.412;2022-12-11T12:44:25;4.70;99.90
27797;DHT22;15177;50.844;4.412;2022-12-11T12:47:00;4.70;99.90
27797;DHT22;15177;50.844;4.412;2022-12-11T12:49:34;4.60;99.90
27797;DHT22;15177;50.844;4.412;2022-12-11T12:52:02;4.50;99.90
27797;DHT22;15177;50.844;4.412;2022-12-11T12:54:31;4.50;99.90
27797;DHT22;15177;50.844;4.412;2022-12-11T12:56:59;4.30;99.90
27797;DHT22;15177;50.844;4.412;2022-12-11T12:59:27;4.30;99.90
27797;DHT22;15177;50.844;4.412;2022-12-11T13:01:58;4.40;99.90
27797;DHT22;15177;50.844;4.412;2022-12-11T13:07:17;4.10;99.90
27797;DHT22;15177;50.844;4.412;2022-12-11T13:10:04;4.20;99.90
27797;DHT22;15177;50.844;4.412;2022-12-11T13:12:41;4.00;99.90
27797;DHT22;15177;50.844;4.412;2022-12-11T13:17:56;4.20;99.90
27797;DHT22;15177;50.844;4.412;2022-12-11T13:20:24;4.30;99.90
27797;DHT22;15177;50.844;4.412;2022-12-11T13:25:32;4.20;99.90
27797;DHT22;15177;50.844;4.412;2022-12-11T13:28:32;4.10;99.90
27797;DHT22;15177;50.844;4.412;2022-12-11T13:31:02;3.70;99.90
27797;DHT22;15177;50.844;4.412;2022-12-11T13:33:29;3.80;99.90
27797;DHT22;15177;50.844;4.412;2022-12-11T13:36:27;4.00;99.90
27797;DHT22;15177;50.844;4.412;2022-12-11T13:39:18;4.20;99.90
27797;DHT22;15177;50.844;4.412;2022-12-11T13:41:49;4.20;99.90
27797;DHT22;15177;50.844;4.412;2022-12-11T13:44:32;4.10;99.90
27797;DHT22;15177;50.844;4.412;2022-12-11T13:47:01;4.00;99.90
27797;DHT22;15177;50.844;4.412;2022-12-11T13:49:35;4.20;99.90
27797;DHT22;15177;50.844;4.412;2022-12-11T13:52:02;3.90;99.90
27797;DHT22;15177;50.844;4.412;2022-12-11T13:54:33;4.10;99.90
27797;DHT22;15177;50.844;4.412;2022-12-11T13:59:33;4.10;99.90
27797;DHT22;15177;50.844;4.412;2022-12-11T14:02:28;4.10;99.90
27797;DHT22;15177;50.844;4.412;2022-12-11T14:05:02;4.10;99.90
27797;DHT22;15177;50.844;4.412;2022-12-11T14:07:40;3.90;99.90
27797;DHT22;15177;50.844;4.412;2022-12-11T14:10:24;4.00;99.90
27797;DHT22;15177;50.844;4.412;2022-12-11T14:13:06;4.10;99.90
27797;DHT22;15177;50.844;4.412;2022-12-11T14:15:35;3.90;99.90
27797;DHT22;15177;50.844;4.412;2022-12-11T14:18:01;4.00;99.90
27797;DHT22;15177;50.844;4.412;2022-12-11T14:20:33;4.20;99.90
27797;DHT22;15177;50.844;4.412;2022-12-11T14:23:19;4.00;99.90
27797;DHT22;15177;50.844;4.412;2022-12-11T14:28:22;3.70;99.90
27797;DHT22;15177;50.844;4.412;2022-12-11T14:30:53;3.60;99.90
27797;DHT22;15177;50.844;4.412;2022-12-11T14:33:22;3.50;99.90
27797;DHT22;15177;50.844;4.412;2022-12-11T14:35:49;3.60;99.90
27797;DHT22;15177;50.844;4.412;2022-12-11T14:38:20;3.50;99.90
27797;DHT22;15177;50.844;4.412;2022-12-11T14:40:50;3.70;99.90
27797;DHT22;15177;50.844;4.412;2022-12-11T14:43:24;4.00;99.90
27797;DHT22;15177;50.844;4.412;2022-12-11T14:45:56;4.00;99.90
27797;DHT22;15177;50.844;4.412;2022-12-11T14:48:31;4.20;99.90
27797;DHT22;15177;50.844;4.412;2022-12-11T14:51:00;4.20;99.90
27797;DHT22;15177;50.844;4.412;2022-12-11T14:53:34;4.30;99.90
27797;DHT22;15177;50.844;4.412;2022-12-11T14:56:05;4.10;99.90
27797;DHT22;15177;50.844;4.412;2022-12-11T14:58:33;4.10;99.90
27797;DHT22;15177;50.844;4.412;2022-12-11T15:01:20;4.00;99.90
27797;DHT22;15177;50.844;4.412;2022-12-11T15:03:47;3.90;99.90
27797;DHT22;15177;50.844;4.412;2022-12-11T15:08:52;4.10;99.90
27797;DHT22;15177;50.844;4.412;2022-12-11T15:11:18;4.20;99.90
27797;DHT22;15177;50.844;4.412;2022-12-11T15:13:55;4.10;99.90
27797;DHT22;15177;50.844;4.412;2022-12-11T15:16:23;4.10;99.90
27797;DHT22;15177;50.844;4.412;2022-12-11T15:18:51;4.20;99.90
27797;DHT22;15177;50.844;4.412;2022-12-11T15:21:18;4.10;99.90
27797;DHT22;15177;50.844;4.412;2022-12-11T15:23:54;4.10;99.90
27797;DHT22;15177;50.844;4.412;2022-12-11T15:29:20;4.10;99.90
27797;DHT22;15177;50.844;4.412;2022-12-11T15:31:58;3.70;99.90
27797;DHT22;15177;50.844;4.412;2022-12-11T15:34:24;3.70;99.90
27797;DHT22;15177;50.844;4.412;2022-12-11T15:36:50;3.90;99.90
27797;DHT22;15177;50.844;4.412;2022-12-11T15:39:16;4.00;99.90
27797;DHT22;15177;50.844;4.412;2022-12-11T15:41:42;4.00;99.90
27797;DHT22;15177;50.844;4.412;2022-12-11T15:44:17;4.10;99.90
27797;DHT22;15177;50.844;4.412;2022-12-11T15:46:44;4.10;99.90
27797;DHT22;15177;50.844;4.412;2022-12-11T15:49:11;4.00;99.90
27797;DHT22;15177;50.844;4.412;2022-12-11T15:51:40;4.00;99.90
27797;DHT22;15177;50.844;4.412;2022-12-11T15:54:07;4.00;99.90
27797;DHT22;15177;50.844;4.412;2022-12-11T15:56:33;4.10;99.90
27797;DHT22;15177;50.844;4.412;2022-12-11T15:59:02;4.00;99.90
27797;DHT22;15177;50.844;4.412;2022-12-11T16:01:28;3.90;99.90
27797;DHT22;15177;50.844;4.412;2022-12-11T16:03:54;3.80;99.90
27797;DHT22;15177;50.844;4.412;2022-12-11T16:06:20;3.70;99.90
27797;DHT22;15177;50.844;4.412;2022-12-11T16:08:45;3.80;99.90
27797;DHT22;15177;50.844;4.412;2022-12-11T16:11:13;3.80;99.90
27797;DHT22;15177;50.844;4.412;2022-12-11T16:13:39;3.80;99.90
27797;DHT22;15177;50.844;4.412;2022-12-11T16:16:06;4.00;99.90
27797;DHT22;15177;50.844;4.412;2022-12-11T16:18:32;3.90;99.90
27797;DHT22;15177;50.844;4.412;2022-12-11T16:21:03;3.70;99.90
27797;DHT22;15177;50.844;4.412;2022-12-11T16:23:30;3.60;99.90
27797;DHT22;15177;50.844;4.412;2022-12-11T16:25:56;3.70;99.90
27797;DHT22;15177;50.844;4.412;2022-12-11T16:28:22;3.90;99.90
27797;DHT22;15177;50.844;4.412;2022-12-11T16:30:48;3.80;99.90
27797;DHT22;15177;50.844;4.412;2022-12-11T16:33:15;4.00;99.90
27797;DHT22;15177;50.844;4.412;2022-12-11T16:35:41;3.90;99.90
27797;DHT22;15177;50.844;4.412;2022-12-11T16:38:07;4.10;99.90
27797;DHT22;15177;50.844;4.412;2022-12-11T16:40:34;4.10;99.90
27797;DHT22;15177;50.844;4.412;2022-12-11T16:42:59;4.00;99.90
27797;DHT22;15177;50.844;4.412;2022-12-11T16:45:26;4.00;99.90
27797;DHT22;15177;50.844;4.412;2022-12-11T16:47:52;4.10;99.90
27797;DHT22;15177;50.844;4.412;2022-12-11T16:50:18;3.90;99.90
27797;DHT22;15177;50.844;4.412;2022-12-11T16:52:44;3.90;99.90
27797;DHT22;15177;50.844;4.412;2022-12-11T16:55:11;3.90;99.90
27797;DHT22;15177;50.844;4.412;2022-12-11T16:57:37;3.90;99.90
27797;DHT22;15177;50.844;4.412;2022-12-11T17:00:05;4.00;99.90
27797;DHT22;15177;50.844;4.412;2022-12-11T17:02:31;3.80;99.90
27797;DHT22;15177;50.844;4.412;2022-12-11T17:04:57;3.80;99.90
27797;DHT22;15177;50.844;4.412;2022-12-11T17:07:22;3.80;99.90
27797;DHT22;15177;50.844;4.412;2022-12-11T17:09:48;3.80;99.90
27797;DHT22;15177;50.844;4.412;2022-12-11T17:12:14;3.90;99.90
27797;DHT22;15177;50.844;4.412;2022-12-11T17:14:40;3.90;99.90
27797;DHT22;15177;50.844;4.412;2022-12-11T17:17:06;3.90;99.90
27797;DHT22;15177;50.844;4.412;2022-12-11T17:19:31;3.80;99.90
27797;DHT22;15177;50.844;4.412;2022-12-11T17:21:57;3.70;99.90
27797;DHT22;15177;50.844;4.412;2022-12-11T17:24:23;3.40;99.90
27797;DHT22;15177;50.844;4.412;2022-12-11T17:26:49;3.40;99.90